Gabriel Angel Pou Pou

Gabriel Angel Pou Pou

Statistiques 2026

  • Courses courues : 67
  • Nb de victoires : 6
  • Nb de places : 15
  • Écart gagnant : 12
  • Réussite à la gagne : 9%
  • Réussite à la place : 22%
Musique : 3a 3a 0a 5a 0a Da Da 3a Da 6a 7a 3a 6a 1a 2a 7a 8a 1a
DateRangCatégorieAlloc.Dist.HippodromeChevalRed. KmSpé.
29/07/17 1 Trot 11 000€ 2 825m Compiegne Espoir d'Onot 1'25"8 Attelé
29/07/17 D Trot 11 000€ 2 800m Compiegne El Gato Grande Attelé
29/07/17 D Trot 12 000€ 2 825m Compiegne Diamond Jiel Attelé
27/07/17 7 Trot 38 000€ 2 875m Enghien Soisy Denver de Vandel 1'16"4 Attelé lire

Vite en queue de peloton, a donné un très bon coup de reins tout au long de la phase finale.

27/07/17 D Trot 39 000€ 2 875m Enghien Soisy Egee de Mahey Attelé lire

Jamais menaçante, a pris le galop à la sortie du tournant final.

23/07/17 D Trot 11 000€ 2 850m Bagnoles De L'Orne Etoile de Sia Attelé
16/07/17 2 Trot 14 000€ 2 525m Les Andelys Donaria Attelé
16/07/17 6 Trot 13 000€ 2 525m Les Andelys Espoir d'Onot Attelé
15/07/17 5 Trot 95 000€ 2 150m Enghien Soisy Trebol 1'13"2 Attelé lire

A rejoint les animateurs dans la ligne opposée, mais n'a pu soutenir la comparaison à la sortie du tournant final.

10/07/17 6 Trot 32 000€ 2 875m Vichy Coumba Kuky 1'15"1 Attelé lire

Vite en queue de peloton, a terminé honorablement sans menacer les premiers toutefois.

09/07/17 D Mixte 12 000€ 2 050m Vitteaux Dimo d'Occagnes Attelé
09/07/17 3 Mixte 10 000€ 2 050m Vitteaux Eyra des Buissons 1'22"9 Attelé
03/07/17 9 Mixte 15 000€ 2 825m Sable Sur Sarthe Castaldo Attelé
03/07/17 2 Mixte 14 000€ 2 825m Sable Sur Sarthe Donaria Attelé
02/07/17 9 Mixte 20 000€ 2 700m Vittel Vicomte de Daidou 1'24"7 Attelé
02/07/17 D Mixte 12 000€ 2 700m Vittel Diva de Minel Attelé
02/07/17 4 Mixte 10 000€ 2 700m Vittel Enigma des Bosc 1'26"2 Attelé
29/06/17 2 Trot 34 000€ 2 150m Enghien Soisy Denver de Vandel 1'16"3 Attelé lire

Longtemps au sein du peloton, a terminé de belle manière mais sans jamais menacer le lauréat.

27/06/17 0 Mixte 20 000€ 2 600m Nancy Castaldo Attelé
25/06/17 0 Trot 16 000€ 2 750m Ecommoy Dame Noire Phi Attelé
25/06/17 D Trot 16 000€ 2 750m Ecommoy Diamond Jiel Attelé
25/06/17 D Trot 10 000€ 2 750m Ecommoy El Gato Grande Attelé
19/06/17 5 Trot 14 000€ 2 775m Craon Donaria 1'22"8 Attelé
17/06/17 8 Trot 165 000€ 2 100m Fin-Kouvola Trebol 1'11"8 Attelé
11/06/17 4 Mixte 20 000€ 2 825m Strasbourg Coumba Kuky 1'16"6 Attelé
11/06/17 6 Mixte 15 000€ 2 800m Strasbourg Dozule Gitan 1'19"7 Attelé
10/06/17 5 Trot 21 000€ 2 725m Lisieux Caliu des Bosc 1'17"6 Attelé
09/06/17 A Trot 21 000€ 2 850m Mauquenchy Danse Avec Moi Attelé
06/06/17 D Trot 37 000€ 2 850m Vincennes Esprit Occagnes Attelé lire

A très vite pris le galop.

06/06/17 D Trot 36 000€ 2 700m Vincennes Denver de Vandel Attelé lire

A très vite pris le galop.

05/06/17 D Trot 13 000€ 2 900m Arras Diva de Minel Attelé
05/06/17 D Trot 12 000€ 2 400m Arras Elvis d'Occagnes Attelé
04/06/17 7 Trot 13 000€ 2 625m Le Touquet Donaria Attelé
30/05/17 3 Trot 20 000€ 2 700m La Capelle Dusty 1'16"5 Attelé
28/05/17 D Trot 20 000€ 2 600m Reims Diamond Jiel Attelé
28/05/17 7 Trot 21 000€ 2 550m Reims Cadmea 1'16"6 Attelé
28/05/17 8 Trot 21 000€ 2 550m Reims Castaldo 1'16"0 Attelé
28/05/17 0 Trot 21 000€ 2 550m Reims Borsalino Magister Attelé
26/05/17 7 Trot 90 000€ 2 100m Vincennes Trebol 1'11"5 Attelé lire

A toujours trotté dans la dernière partie du peloton.

24/05/17 D Trot 22 000€ 2 700m Le Croise Laroche Classique Montana Attelé lire

Vite bien placé, a été sanctionné après les tribunes.

24/05/17 D Trot 21 000€ 2 700m Le Croise Laroche Dynamic Dream Attelé lire

A vite pris le galop.

24/05/17 2 Trot 22 000€ 2 700m Le Croise Laroche Espoir de Fleury 1'16"7 Attelé lire

Après avoir trotté au sein du peloton, est venu prendre le meilleur pour aborder la ligne droite, avant de s'incliner pour finir.

22/05/17 4 Trot 21 000€ 2 200m Caen Cuba Libre 1'13"2 Attelé
21/05/17 0 Mixte 19 000€ 2 600m Nancy Bonheur de Bresles Attelé
21/05/17 2 Mixte 23 000€ 2 600m Nancy Verre Gourmand 1'16"4 Attelé
21/05/17 2 Mixte 14 000€ 2 600m Nancy Danseuse 1'18"0 Attelé
21/05/17 4 Mixte 12 000€ 2 600m Nancy Elvis d'Occagnes 1'18"4 Attelé
20/05/17 9 Trot 15 000€ 2 400m Amiens Donaria 1'17"6 Attelé
19/05/17 D Trot 21 000€ 3 125m Angers Caliu des Bosc Attelé
19/05/17 4 Trot 20 000€ 2 350m Angers Dusty 1'16"8 Attelé